Share

Milhostov, Slovakia

Markovce MS1 (IKOU01612) Elev 384 ft | 48.59 °N, 21.84 °E | Change Station

Current weather conditions updated 15 minutes ago

Clear
Clear
44.5 °F
Feels Like 41 °F
N
6.0
Wind Variable Wind from North
Gusts 12.0 mph
Sunrise 5:37 AM
Sunset 7:28 PM
Moon Waning Gibbous

Today is forecast to be Much Warmer than yesterday.

Pressure 29.83 in
Visibility -9999.0 miles
Clouds
Windchill 41 °F
Dew Point 42 °F
Humidity 89%
Rainfall 0.00 in
Snow Depth Not available.
UV 0.6 out of 16
Pollen Not available.
Air Quality Not available.
Flu Activity Not available.
METAR LZKZ 180500Z 05005KT CAVOK 07/04 Q1010 NOSIG

More Conditions Fewer Conditions

Pressure 29.83 in
Visibility -9999.0 miles
Clouds
Windchill 41 °F
Dew Point 42 °F
Humidity 89%
Rainfall 0.00 in
Snow Depth Not available.
UV 0.6 out of 16
Pollen Not available.
Air Quality Not available.
Flu Activity Not available.
METAR LZKZ 180500Z 05005KT CAVOK 07/04 Q1010 NOSIG

More Conditions Fewer Conditions

10-Day Forecast

Almanac

Astronomy

Apr. 18, 2014 Rise Set
Actual Time 5:37 AM CEST 7:28 PM CEST
Civil Twilight 5:03 AM CEST 8:02 PM CEST
Nautical Twilight 4:22 AM CEST 8:43 PM CEST
Astronomical Twilight 3:37 AM CEST 9:29 PM CEST
Moon 11:07 PM CEST 7:32 AM CEST
Length of Visible Light 14h 58m
Length of Day
13h 51m
Tomorrow will be 3m 24s longer.
Waning Gibbous, 90% of the Moon is Illuminated
Today
Waning Gibbous
Apr 22
Last Quarter
Apr 29
New
May 6
First Quarter
May 14
Full

Yesterday's Extremes

Country Highs Country Lows

Community

  • SUNRISE THROUGH THE TREES.
    SUNRISE THROUGH THE TREES.
  • Dog Wood Blossoms
    Dog Wood Blossoms
  • Morning Light
    Morning Light
  • New Day
    New Day
  • Lake Michigan Sunrise
    Lake Michigan Sunrise

WunderPhotos

Upload Photos

1,702,262 photos uploaded!

WunderBlogs® & News

Nearby

Snow Depth

Not available.

Coastal Water Temperatures

Place Temperature
No Stations Reporting

Earthquake Activity

City Distance Mag. Time & Date
No recent earthquake activity has been reported nearby.
Minimum magnitude displayed is 2.5.

Nearby Weather Stations

Station Location Temp. Windchill Dew Point Humidity Wind Precip. Elev Updated Type
Markovce MS1, Markovce 44.5 °F 41 °F 42 °F 89% North  at  6.0 mph 0.00 in / hr 384 ft 6:55 AM CEST Normal
Velaty 44.9 °F 41 °F 40 °F 84% North  at  7.0 mph - / hr 673 ft 6:55 AM CEST Normal
OM8KT, Kosice 49.3 °F 49 °F 42 °F 76% NE  at  3.1 mph 0.00 in / hr 784 ft 7:10 AM CEST Rapid Fire

Show More Stations Show Fewer Stations

What do you think?

We're not finished. Please let us know what you like, what you don't like, and what you are still missing.